createdAt,value
2023-06-30T00:00:12.914Z,5.30
2023-06-30T00:02:41.498Z,13.80
2023-06-30T00:05:09.187Z,17.60
2023-06-30T00:07:36.246Z,18.33
2023-06-30T00:10:04.518Z,16.55
2023-06-30T00:12:31.247Z,14.55
2023-06-30T00:14:58.232Z,9.15
2023-06-30T00:17:24.949Z,10.32
2023-06-30T00:19:52.285Z,12.13
2023-06-30T00:22:21.173Z,15.98
2023-06-30T00:24:49.808Z,13.80
2023-06-30T00:27:16.563Z,17.70
2023-06-30T00:29:43.222Z,14.35
2023-06-30T00:32:09.920Z,9.13
2023-06-30T00:34:36.649Z,17.30
2023-06-30T00:37:03.574Z,10.80
2023-06-30T00:39:30.256Z,14.55
2023-06-30T00:41:56.929Z,10.80
2023-06-30T00:44:23.612Z,8.48
2023-06-30T00:46:50.331Z,13.50
2023-06-30T00:49:17.112Z,10.98
2023-06-30T00:51:43.797Z,10.95
2023-06-30T00:54:10.742Z,13.27
2023-06-30T00:56:37.412Z,16.73
2023-06-30T00:59:04.119Z,17.15
2023-06-30T01:01:33.647Z,12.75
2023-06-30T01:04:17.319Z,13.45
2023-06-30T01:06:55.701Z,8.63
2023-06-30T01:09:27.240Z,12.55
2023-06-30T01:11:54.938Z,13.38
2023-06-30T01:14:23.838Z,13.48
2023-06-30T01:16:51.872Z,8.60
2023-06-30T01:19:27.393Z,8.60
2023-06-30T01:21:56.933Z,12.55
2023-06-30T01:24:27.328Z,10.65
2023-06-30T01:26:54.396Z,19.17
2023-06-30T01:29:22.194Z,12.73
2023-06-30T01:31:49.142Z,18.30
2023-06-30T01:34:15.829Z,12.00
2023-06-30T01:36:42.470Z,11.63
2023-06-30T01:39:09.256Z,13.85
2023-06-30T01:41:36.392Z,19.08
2023-06-30T01:44:03.820Z,12.40
2023-06-30T01:46:30.679Z,13.40
2023-06-30T01:48:57.852Z,10.88
2023-06-30T01:51:24.569Z,12.32
2023-06-30T01:53:51.269Z,15.25
2023-06-30T01:56:18.165Z,12.80
2023-06-30T01:58:44.871Z,12.90
2023-06-30T02:01:11.578Z,11.90
2023-06-30T02:03:38.384Z,8.90
2023-06-30T02:06:05.124Z,15.77
2023-06-30T02:08:31.818Z,21.10
2023-06-30T02:10:58.525Z,8.95
2023-06-30T02:13:25.246Z,22.08
2023-06-30T02:15:51.946Z,15.15
2023-06-30T02:18:18.650Z,15.35
2023-06-30T02:20:45.265Z,9.75
2023-06-30T02:23:11.869Z,11.52
2023-06-30T02:25:38.546Z,12.55
2023-06-30T02:28:05.317Z,9.80
2023-06-30T02:30:31.972Z,11.15
2023-06-30T02:32:59.397Z,14.93
2023-06-30T02:35:26.107Z,14.55
2023-06-30T02:37:52.767Z,13.32
2023-06-30T02:40:19.505Z,8.43
2023-06-30T02:42:46.226Z,12.48
2023-06-30T02:45:13.193Z,17.33
2023-06-30T02:47:41.546Z,10.43
2023-06-30T02:50:09.656Z,11.98
2023-06-30T02:52:36.403Z,12.45
2023-06-30T02:55:03.378Z,27.35
2023-06-30T02:57:30.047Z,11.48
2023-06-30T02:59:57.930Z,24.98
2023-06-30T03:02:24.946Z,12.80
2023-06-30T03:04:52.098Z,14.68
2023-06-30T03:07:18.802Z,14.68
2023-06-30T03:09:46.047Z,10.07
2023-06-30T03:12:12.753Z,9.20
2023-06-30T03:14:40.876Z,9.20
2023-06-30T03:17:07.772Z,14.25
2023-06-30T03:19:34.434Z,10.13
2023-06-30T03:22:01.234Z,12.05
2023-06-30T03:24:28.064Z,12.63
2023-06-30T03:26:54.720Z,16.80
2023-06-30T03:29:21.352Z,9.65
2023-06-30T03:31:47.963Z,9.32
2023-06-30T03:34:14.718Z,8.95
2023-06-30T03:36:41.624Z,9.07
2023-06-30T03:39:08.275Z,7.88
2023-06-30T03:41:35.050Z,7.30
2023-06-30T03:44:01.740Z,9.32
2023-06-30T03:46:28.536Z,8.35
2023-06-30T03:48:55.277Z,9.43
2023-06-30T03:51:22.060Z,5.47
2023-06-30T03:53:48.817Z,5.13
2023-06-30T03:56:15.603Z,6.03
2023-06-30T03:58:42.312Z,6.28
2023-06-30T04:01:09.061Z,6.22
2023-06-30T04:03:36.053Z,5.90
2023-06-30T04:06:02.967Z,6.28
2023-06-30T04:08:30.413Z,4.45
2023-06-30T04:10:57.200Z,5.30
2023-06-30T04:13:23.879Z,4.32
2023-06-30T04:15:50.699Z,7.65
2023-06-30T04:18:17.445Z,4.50
2023-06-30T04:20:45.444Z,7.18
2023-06-30T04:23:12.133Z,4.57
2023-06-30T04:25:40.588Z,6.22
2023-06-30T04:28:07.210Z,4.65
2023-06-30T04:30:33.847Z,4.57
2023-06-30T04:33:00.534Z,4.78
2023-06-30T04:35:27.318Z,3.55
2023-06-30T04:37:54.141Z,7.07
2023-06-30T04:40:21.048Z,2.35
2023-06-30T04:42:47.820Z,4.15
2023-06-30T04:45:15.533Z,2.35
2023-06-30T04:47:43.095Z,5.68
2023-06-30T04:50:10.353Z,3.92
2023-06-30T04:52:37.089Z,5.50
2023-06-30T04:55:03.881Z,2.55
2023-06-30T04:57:30.658Z,0.95
2023-06-30T04:59:58.057Z,3.45
2023-06-30T05:02:24.777Z,2.95
2023-06-30T05:04:52.469Z,1.00
2023-06-30T05:07:19.329Z,1.70
2023-06-30T05:09:47.925Z,3.58
2023-06-30T05:12:16.068Z,1.65
2023-06-30T05:14:42.915Z,0.55
2023-06-30T05:17:09.777Z,4.85
2023-06-30T05:19:37.176Z,1.75
2023-06-30T05:22:04.068Z,5.00
2023-06-30T05:24:30.772Z,3.70
2023-06-30T05:26:57.600Z,1.60
2023-06-30T05:29:24.460Z,1.85
2023-06-30T05:31:51.296Z,1.00
2023-06-30T05:34:18.080Z,2.20
2023-06-30T05:36:47.639Z,1.50
2023-06-30T05:39:15.554Z,1.40
2023-06-30T05:41:42.750Z,0.35
2023-06-30T05:44:10.601Z,0.80
2023-06-30T05:46:41.009Z,3.78
2023-06-30T05:49:07.895Z,0.13
2023-06-30T05:51:35.215Z,2.28
2023-06-30T05:54:05.818Z,0.38
2023-06-30T05:56:32.942Z,0.10
2023-06-30T05:58:59.935Z,1.42
2023-06-30T06:01:26.739Z,0.20
2023-06-30T06:03:53.673Z,0.20
2023-06-30T06:06:23.872Z,0.10
2023-06-30T06:08:50.699Z,0.25
2023-06-30T06:11:17.441Z,0.10
2023-06-30T06:13:44.184Z,0.20
2023-06-30T06:16:10.905Z,0.20
2023-06-30T06:18:37.653Z,1.38
2023-06-30T06:21:05.431Z,0.85
2023-06-30T06:23:33.297Z,1.17
2023-06-30T06:26:01.169Z,3.08
2023-06-30T06:28:27.820Z,0.32
2023-06-30T06:30:54.680Z,1.95
2023-06-30T06:33:21.607Z,0.03
2023-06-30T06:35:52.131Z,1.05
2023-06-30T06:38:20.148Z,1.85
2023-06-30T06:40:47.889Z,1.38
2023-06-30T06:43:14.984Z,1.00
2023-06-30T06:45:44.645Z,0.40
2023-06-30T06:48:28.942Z,0.80
2023-06-30T06:50:57.947Z,1.13
2023-06-30T06:53:28.306Z,0.20
2023-06-30T06:55:56.043Z,0.22
2023-06-30T06:58:24.025Z,0.35
2023-06-30T07:00:51.767Z,2.63
2023-06-30T07:03:20.340Z,1.35
2023-06-30T07:05:48.211Z,0.20
2023-06-30T07:08:16.811Z,1.20
2023-06-30T07:10:45.479Z,0.35
2023-06-30T07:13:14.124Z,0.38
2023-06-30T07:15:40.851Z,1.27
2023-06-30T07:18:07.754Z,0.45
2023-06-30T07:20:35.323Z,0.35
2023-06-30T07:23:02.656Z,1.38
2023-06-30T07:25:29.863Z,0.70
2023-06-30T07:27:58.504Z,1.15
2023-06-30T07:30:26.724Z,0.20
2023-06-30T07:32:54.976Z,0.30
2023-06-30T07:35:23.957Z,0.85
2023-06-30T07:37:51.369Z,3.08
2023-06-30T07:40:23.725Z,0.65
2023-06-30T07:42:51.190Z,0.40
2023-06-30T07:45:18.657Z,0.20
2023-06-30T07:47:47.793Z,2.17
2023-06-30T07:50:16.307Z,0.85
2023-06-30T07:52:49.260Z,1.48
2023-06-30T07:55:17.485Z,0.47
2023-06-30T07:57:45.393Z,0.10
2023-06-30T08:00:16.582Z,0.25
2023-06-30T08:02:44.027Z,0.20
2023-06-30T08:05:11.782Z,2.05
2023-06-30T08:07:44.247Z,0.10
2023-06-30T08:10:15.864Z,1.92
2023-06-30T08:12:42.639Z,1.40
2023-06-30T08:15:09.624Z,0.65
2023-06-30T08:17:51.799Z,1.17
2023-06-30T08:20:23.068Z,0.80
2023-06-30T08:22:49.898Z,0.25
2023-06-30T08:25:17.287Z,1.55
2023-06-30T08:27:44.211Z,1.10
2023-06-30T08:30:11.343Z,0.30
2023-06-30T08:32:39.555Z,0.20
2023-06-30T08:35:06.606Z,0.20
2023-06-30T08:37:33.374Z,1.40
2023-06-30T08:40:01.122Z,0.98
2023-06-30T08:42:32.281Z,0.52
2023-06-30T08:44:59.236Z,0.20
2023-06-30T08:47:29.641Z,0.93
2023-06-30T08:49:57.474Z,0.25
2023-06-30T08:52:24.323Z,1.00
2023-06-30T08:54:51.235Z,0.40
2023-06-30T08:57:21.343Z,0.43
2023-06-30T08:59:48.537Z,0.38
2023-06-30T09:02:15.461Z,0.82
2023-06-30T09:04:43.457Z,0.10
2023-06-30T09:07:22.863Z,0.20
2023-06-30T09:09:50.646Z,0.35
2023-06-30T09:12:19.889Z,1.70
2023-06-30T09:14:48.993Z,0.77
2023-06-30T09:17:16.951Z,0.50
2023-06-30T09:19:43.643Z,0.93
2023-06-30T09:22:54.884Z,0.95
2023-06-30T09:24:57.036Z,2.20
2023-06-30T09:27:27.871Z,1.85
2023-06-30T09:29:55.931Z,0.13
2023-06-30T09:32:33.974Z,0.40
2023-06-30T09:35:10.310Z,0.35
2023-06-30T09:37:43.682Z,1.02
2023-06-30T09:40:16.569Z,0.57
2023-06-30T09:42:47.800Z,0.15
2023-06-30T09:47:42.940Z,0.35
2023-06-30T09:50:11.845Z,0.55
2023-06-30T09:52:38.765Z,0.35
2023-06-30T09:55:12.055Z,0.10
2023-06-30T09:57:41.240Z,1.77
2023-06-30T10:00:11.628Z,0.30
2023-06-30T10:02:45.516Z,0.25
2023-06-30T10:05:12.973Z,0.10
2023-06-30T10:07:42.859Z,0.20
2023-06-30T10:10:12.585Z,0.10
2023-06-30T10:12:44.325Z,0.32
2023-06-30T10:15:12.033Z,0.10
2023-06-30T10:17:44.459Z,0.35
2023-06-30T10:20:11.801Z,0.40
2023-06-30T10:22:39.343Z,0.22
2023-06-30T10:25:11.544Z,0.55
2023-06-30T10:27:40.079Z,0.47
2023-06-30T10:30:08.210Z,0.20
2023-06-30T10:32:35.342Z,1.23
2023-06-30T10:35:02.683Z,0.45
2023-06-30T10:37:29.577Z,0.10
2023-06-30T10:39:56.387Z,1.90
2023-06-30T10:42:29.612Z,0.50
2023-06-30T10:45:02.525Z,0.57
2023-06-30T10:47:29.430Z,0.35
2023-06-30T10:49:56.816Z,0.20
2023-06-30T10:52:31.205Z,0.32
2023-06-30T10:55:09.818Z,0.15
2023-06-30T10:57:40.440Z,0.20
2023-06-30T11:00:08.540Z,0.38
2023-06-30T11:02:36.213Z,0.25
2023-06-30T11:05:30.047Z,0.22
2023-06-30T11:08:02.991Z,0.50
2023-06-30T11:10:38.216Z,0.60
2023-06-30T11:13:10.211Z,0.30
2023-06-30T11:15:45.784Z,1.20
2023-06-30T11:18:25.470Z,0.52
2023-06-30T11:21:05.850Z,0.50
2023-06-30T11:23:44.144Z,0.20
2023-06-30T11:26:20.279Z,0.50
2023-06-30T11:28:49.331Z,1.15
2023-06-30T11:31:16.762Z,0.40
2023-06-30T11:33:44.651Z,0.38
2023-06-30T11:36:15.455Z,0.55
2023-06-30T11:38:46.649Z,1.35
2023-06-30T11:41:18.888Z,0.30
2023-06-30T11:43:58.088Z,0.35
2023-06-30T11:46:26.087Z,0.40
2023-06-30T11:48:52.789Z,1.98
2023-06-30T11:51:19.482Z,0.50
2023-06-30T11:53:50.461Z,0.40
2023-06-30T11:56:21.042Z,2.73
2023-06-30T11:58:49.920Z,1.27
2023-06-30T12:01:17.307Z,1.13
2023-06-30T12:03:44.105Z,0.90
2023-06-30T12:06:11.132Z,1.40
2023-06-30T12:08:39.889Z,1.75
2023-06-30T12:11:08.311Z,0.55
2023-06-30T12:13:35.086Z,0.93
2023-06-30T12:16:04.472Z,1.13
2023-06-30T12:18:36.413Z,0.30
2023-06-30T12:21:05.091Z,1.48
2023-06-30T12:23:31.896Z,0.50
2023-06-30T12:25:58.967Z,0.35
2023-06-30T12:28:25.631Z,1.58
2023-06-30T12:30:52.322Z,1.85
2023-06-30T12:33:23.435Z,0.70
2023-06-30T12:35:52.279Z,0.52
2023-06-30T12:38:19.716Z,0.30
2023-06-30T12:40:46.521Z,1.77
2023-06-30T12:43:13.325Z,3.08
2023-06-30T12:45:44.027Z,1.92
2023-06-30T12:48:10.902Z,2.40
2023-06-30T12:50:38.059Z,1.75
2023-06-30T12:53:06.947Z,1.90
2023-06-30T12:55:34.951Z,0.93
2023-06-30T12:58:01.836Z,0.50
2023-06-30T13:00:28.526Z,1.55
2023-06-30T13:02:55.744Z,1.13
2023-06-30T13:05:23.544Z,0.50
2023-06-30T13:07:50.267Z,0.60
2023-06-30T13:10:17.122Z,0.70
2023-06-30T13:12:43.974Z,0.60
2023-06-30T13:15:11.291Z,0.90
2023-06-30T13:17:39.078Z,1.25
2023-06-30T13:20:07.722Z,0.60
2023-06-30T13:22:36.242Z,0.32
2023-06-30T13:25:04.966Z,0.50
2023-06-30T13:27:32.163Z,0.73
2023-06-30T13:29:58.870Z,0.77
2023-06-30T13:32:25.586Z,0.40
2023-06-30T13:34:52.762Z,0.70
2023-06-30T13:37:21.649Z,0.65
2023-06-30T13:39:48.315Z,0.73
2023-06-30T13:42:15.197Z,0.43
2023-06-30T13:44:41.936Z,1.33
2023-06-30T13:47:08.613Z,0.93
2023-06-30T13:49:35.244Z,1.38
2023-06-30T13:52:01.988Z,0.32
2023-06-30T13:54:30.497Z,2.97
2023-06-30T13:56:57.194Z,0.30
2023-06-30T13:59:23.908Z,0.38
2023-06-30T14:01:50.679Z,0.52
2023-06-30T14:04:17.568Z,0.30
2023-06-30T14:06:44.360Z,4.32
2023-06-30T14:09:12.202Z,0.22
2023-06-30T14:11:40.002Z,1.45
2023-06-30T14:14:06.999Z,0.22
2023-06-30T14:16:36.031Z,0.30
2023-06-30T14:19:04.622Z,1.58
2023-06-30T14:21:32.295Z,0.40
2023-06-30T14:23:59.625Z,0.45
2023-06-30T14:26:26.711Z,0.28
2023-06-30T14:28:54.097Z,0.10
2023-06-30T14:31:21.304Z,0.22
2023-06-30T14:33:48.367Z,0.15
2023-06-30T14:36:15.265Z,0.10
2023-06-30T14:38:41.989Z,0.10
2023-06-30T14:41:08.609Z,0.20
2023-06-30T14:43:35.435Z,0.25
2023-06-30T14:46:02.116Z,0.20
2023-06-30T14:48:28.903Z,0.43
2023-06-30T14:50:55.542Z,0.20
2023-06-30T14:53:22.176Z,0.22
2023-06-30T14:55:49.062Z,0.43
2023-06-30T14:58:16.428Z,0.85
2023-06-30T15:00:45.011Z,0.20
2023-06-30T15:03:12.658Z,1.10
2023-06-30T15:05:39.488Z,0.20
2023-06-30T15:08:07.882Z,1.15
2023-06-30T15:10:35.050Z,0.52
2023-06-30T15:13:01.847Z,2.15
2023-06-30T15:15:28.557Z,0.77
2023-06-30T15:17:55.339Z,0.40
2023-06-30T15:20:22.146Z,1.90
2023-06-30T15:22:48.923Z,0.47
2023-06-30T15:25:30.213Z,0.65
2023-06-30T15:27:58.107Z,0.63
2023-06-30T15:30:24.994Z,1.67
2023-06-30T15:32:52.309Z,0.10
2023-06-30T15:35:19.181Z,0.90
2023-06-30T15:37:46.313Z,2.17
2023-06-30T15:40:13.319Z,1.65
2023-06-30T15:42:40.967Z,0.52
2023-06-30T15:45:08.354Z,1.83
2023-06-30T15:47:35.074Z,1.60
2023-06-30T15:50:01.991Z,1.45
2023-06-30T15:52:28.667Z,0.43
2023-06-30T15:55:09.460Z,0.52
2023-06-30T15:57:36.866Z,1.17
2023-06-30T16:00:04.793Z,0.63
2023-06-30T16:02:31.618Z,4.15
2023-06-30T16:04:58.566Z,0.30
2023-06-30T16:07:26.318Z,0.30
2023-06-30T16:09:54.244Z,0.30
2023-06-30T16:12:22.240Z,1.27
2023-06-30T16:14:48.964Z,0.88
2023-06-30T16:17:15.669Z,0.57
2023-06-30T16:19:42.393Z,0.25
2023-06-30T16:22:09.494Z,0.57
2023-06-30T16:24:37.996Z,0.30
2023-06-30T16:27:06.802Z,1.63
2023-06-30T16:29:35.006Z,1.73
2023-06-30T16:32:03.579Z,2.78
2023-06-30T16:34:31.491Z,1.30
2023-06-30T16:36:58.336Z,0.28
2023-06-30T16:39:25.090Z,1.75
2023-06-30T16:41:52.538Z,0.30
2023-06-30T16:44:19.303Z,1.17
2023-06-30T16:46:46.074Z,0.47
2023-06-30T16:49:12.770Z,0.40
2023-06-30T16:51:39.820Z,1.20
2023-06-30T16:54:06.766Z,0.60
2023-06-30T16:56:33.474Z,0.65
2023-06-30T16:59:00.356Z,1.38
2023-06-30T17:01:27.283Z,2.03
2023-06-30T17:03:54.006Z,3.15
2023-06-30T17:06:20.730Z,1.52
2023-06-30T17:08:47.368Z,1.02
2023-06-30T17:11:14.054Z,0.43
2023-06-30T17:13:40.776Z,0.60
2023-06-30T17:16:08.671Z,1.08
2023-06-30T17:18:35.403Z,1.27
2023-06-30T17:21:02.060Z,0.47
2023-06-30T17:23:28.907Z,0.75
2023-06-30T17:25:55.633Z,1.05
2023-06-30T17:28:22.388Z,2.47
2023-06-30T17:30:49.056Z,0.85
2023-06-30T17:33:15.801Z,0.85
2023-06-30T17:35:42.503Z,1.55
2023-06-30T17:38:09.210Z,2.17
2023-06-30T17:40:35.905Z,0.65
2023-06-30T17:43:02.683Z,1.48
2023-06-30T17:45:29.375Z,0.43
2023-06-30T17:47:56.037Z,0.63
2023-06-30T17:50:26.195Z,0.40
2023-06-30T17:52:52.999Z,1.00
2023-06-30T17:55:19.787Z,1.85
2023-06-30T17:57:46.488Z,0.70
2023-06-30T18:00:13.828Z,4.38
2023-06-30T18:02:40.632Z,0.40
2023-06-30T18:05:07.719Z,0.45
2023-06-30T18:07:34.433Z,0.68
2023-06-30T18:10:01.119Z,1.27
2023-06-30T18:12:27.797Z,0.35
2023-06-30T18:14:54.565Z,0.68
2023-06-30T18:17:22.709Z,0.47
2023-06-30T18:19:49.485Z,1.05
2023-06-30T18:22:16.487Z,1.10
2023-06-30T18:24:44.289Z,1.73
2023-06-30T18:27:10.953Z,1.50
2023-06-30T18:29:39.924Z,0.88
2023-06-30T18:32:07.131Z,1.23
2023-06-30T18:34:33.955Z,2.28
2023-06-30T18:37:00.665Z,3.35
2023-06-30T18:39:27.320Z,2.17
2023-06-30T18:41:55.892Z,1.27
2023-06-30T18:44:25.074Z,2.63
2023-06-30T18:46:52.343Z,2.60
2023-06-30T18:49:20.699Z,2.67
2023-06-30T18:51:47.529Z,1.63
2023-06-30T18:54:14.245Z,2.25
2023-06-30T18:56:40.956Z,0.82
2023-06-30T18:59:07.961Z,1.67
2023-06-30T19:01:35.054Z,0.82
2023-06-30T19:04:02.605Z,0.47
2023-06-30T19:06:29.591Z,0.80
2023-06-30T19:08:56.408Z,0.60
2023-06-30T19:11:24.257Z,1.45
2023-06-30T19:13:51.533Z,0.80
2023-06-30T19:16:19.801Z,0.75
2023-06-30T19:18:47.369Z,2.63
2023-06-30T19:21:14.609Z,2.72
2023-06-30T19:23:42.035Z,1.58
2023-06-30T19:26:09.734Z,1.55
2023-06-30T19:28:36.502Z,0.40
2023-06-30T19:31:03.638Z,2.13
2023-06-30T19:33:31.616Z,0.80
2023-06-30T19:35:59.235Z,1.52
2023-06-30T19:38:26.356Z,1.77
2023-06-30T19:40:54.621Z,1.30
2023-06-30T19:43:21.350Z,0.88
2023-06-30T19:45:48.567Z,0.90
2023-06-30T19:48:15.343Z,2.78
2023-06-30T19:50:43.572Z,2.33
2023-06-30T19:53:10.951Z,1.83
2023-06-30T19:55:39.875Z,1.58
2023-06-30T19:58:08.949Z,1.55
2023-06-30T20:00:37.331Z,1.73
2023-06-30T20:03:04.385Z,0.70
2023-06-30T20:05:31.152Z,0.60
2023-06-30T20:07:57.857Z,1.52
2023-06-30T20:10:24.667Z,0.55
2023-06-30T20:12:51.470Z,0.50
2023-06-30T20:15:18.340Z,0.70
2023-06-30T20:17:45.380Z,0.95
2023-06-30T20:20:15.628Z,0.65
2023-06-30T20:22:43.136Z,0.35
2023-06-30T20:25:10.956Z,0.28
2023-06-30T20:27:39.215Z,2.17
2023-06-30T20:30:07.518Z,3.30
2023-06-30T20:32:34.253Z,0.50
2023-06-30T20:35:01.068Z,1.48
2023-06-30T20:37:27.780Z,0.43
2023-06-30T20:39:56.756Z,0.70
2023-06-30T20:42:24.052Z,0.28
2023-06-30T20:44:50.794Z,3.15
2023-06-30T20:47:18.614Z,0.85
2023-06-30T20:49:45.504Z,1.00
2023-06-30T20:52:12.317Z,0.60
2023-06-30T20:54:39.051Z,0.65
2023-06-30T20:57:06.395Z,1.65
2023-06-30T20:59:33.814Z,4.30
2023-06-30T21:02:02.089Z,2.53
2023-06-30T21:04:29.233Z,2.35
2023-06-30T21:06:56.025Z,1.58
2023-06-30T21:09:22.773Z,0.93
2023-06-30T21:11:49.542Z,2.38
2023-06-30T21:14:16.413Z,2.00
2023-06-30T21:16:44.180Z,1.35
2023-06-30T21:19:11.009Z,2.15
2023-06-30T21:21:38.415Z,1.67
2023-06-30T21:24:05.314Z,2.00
2023-06-30T21:26:32.081Z,0.50
2023-06-30T21:28:59.022Z,2.85
2023-06-30T21:31:25.928Z,0.50
2023-06-30T21:33:52.595Z,2.80
2023-06-30T21:36:19.365Z,0.40
2023-06-30T21:38:46.106Z,2.22
2023-06-30T21:41:12.927Z,3.50
2023-06-30T21:43:39.660Z,1.20
2023-06-30T21:46:14.098Z,1.58
2023-06-30T21:48:41.288Z,6.25
2023-06-30T21:51:11.417Z,1.30
2023-06-30T21:53:38.078Z,2.45
2023-06-30T21:56:05.056Z,2.15
2023-06-30T21:58:32.050Z,0.60
2023-06-30T22:00:58.810Z,3.70
2023-06-30T22:03:26.157Z,1.02
2023-06-30T22:05:53.352Z,1.27
2023-06-30T22:08:20.210Z,0.88
2023-06-30T22:10:47.364Z,6.53
2023-06-30T22:13:14.483Z,0.68
2023-06-30T22:15:41.272Z,3.40
2023-06-30T22:18:08.273Z,0.98
2023-06-30T22:20:35.355Z,3.00
2023-06-30T22:23:02.596Z,1.30
2023-06-30T22:25:29.283Z,2.85
2023-06-30T22:27:56.936Z,3.30
2023-06-30T22:30:27.308Z,3.15
2023-06-30T22:32:54.418Z,2.92
2023-06-30T22:35:21.561Z,2.35
2023-06-30T22:37:48.217Z,1.83
2023-06-30T22:40:17.195Z,2.67
2023-06-30T22:42:44.414Z,1.85
2023-06-30T22:45:12.267Z,2.65
2023-06-30T22:47:39.666Z,4.57
2023-06-30T22:50:09.889Z,1.33
2023-06-30T22:52:39.570Z,2.53
2023-06-30T22:55:09.782Z,3.30
2023-06-30T22:57:36.727Z,6.90
2023-06-30T23:00:05.459Z,2.80
2023-06-30T23:02:32.199Z,2.20
2023-06-30T23:04:59.192Z,1.30
2023-06-30T23:07:26.056Z,3.05
2023-06-30T23:09:52.704Z,1.95
2023-06-30T23:12:19.431Z,0.52
2023-06-30T23:14:46.171Z,3.45
2023-06-30T23:17:16.175Z,3.38
2023-06-30T23:19:49.054Z,2.65
2023-06-30T23:22:17.230Z,1.02
2023-06-30T23:24:51.457Z,4.50
2023-06-30T23:27:19.368Z,1.67
2023-06-30T23:29:50.132Z,1.92
2023-06-30T23:32:20.437Z,1.60
2023-06-30T23:34:48.364Z,2.20
2023-06-30T23:37:17.885Z,1.27
2023-06-30T23:39:45.796Z,4.53
2023-06-30T23:42:12.469Z,0.85
2023-06-30T23:44:39.212Z,3.65
2023-06-30T23:47:14.540Z,4.35
2023-06-30T23:49:41.565Z,3.38
2023-06-30T23:52:09.593Z,4.80
2023-06-30T23:54:36.371Z,3.83
2023-06-30T23:57:03.214Z,2.15
2023-06-30T23:59:29.858Z,3.83
